AIRPORT ID: KLEM

DATE: 2024-06-16 ZULU TIME: 14.55 LOCAL TIME: 8.55


METAR KLEM 161455Z AUTO 27016G25KT 10SM 16/03 A2976

ALTIMETER: A2976 Q1008

DENSITY ALT: 3400 Ft

WIND DIRECT: 280

WIND SPEED: 16 Gust

WIND CONDITIONS:

VISIBILTY: 10SM 9999M

TEMPERATURE: 61 F 16 C

DEW POINT: 37 F 3 C

HUMID: 41%

LCL: 3,000-5,000 feet

RADIO CHECK: 0

ADVISARIES: 0

GREETINGS: 0

CONVERSATIONS: 0